Time;durP1;ratioP1;P1;durP2;ratioP2;P2;SDS_P1;SDS_P2;PMS_P1;PMS_P2;Temp;Humidity;BMP_temperature;BMP_pressure;BME280_temperature;BME280_humidity;BME280_pressure;Samples;Min_cycle;Max_cycle;Signal;HPM_P1;HPM_P2
2024/03/15 00:00:52;;;;;;;26.00;14.20;;;;;;;-3.68;72.18;141382.55;110568;1274;22106;-62
2024/03/15 00:03:38;;;;;;;22.00;13.30;;;;;;;-3.68;72.29;141382.31;110589;1274;22183;-63
2024/03/15 00:06:26;;;;;;;24.30;14.80;;;;;;;-3.67;72.30;141385.03;110614;1273;22234;-65
2024/03/15 00:09:13;;;;;;;25.20;14.00;;;;;;;-3.63;72.45;141392.97;110596;1274;22816;-65
2024/03/15 00:12:02;;;;;;;21.40;13.60;;;;;;;-3.62;72.37;141397.91;110562;1273;22107;-66
2024/03/15 00:14:48;;;;;;;24.80;14.20;;;;;;;-3.60;72.20;141401.39;110580;1274;22108;-62
2024/03/15 00:17:34;;;;;;;27.00;15.30;;;;;;;-3.59;72.28;141403.63;110598;1273;22145;-64
2024/03/15 00:20:22;;;;;;;25.00;14.70;;;;;;;-3.60;72.62;141402.38;110614;1274;22298;-67
2024/03/15 00:23:08;;;;;;;25.20;16.40;;;;;;;-3.60;72.57;141403.13;110608;1273;22096;-65
2024/03/15 00:25:55;;;;;;;31.90;15.00;;;;;;;-3.61;72.91;141398.41;110601;1273;22104;-65
2024/03/15 00:28:41;;;;;;;27.60;15.30;;;;;;;-3.63;72.98;141393.70;110622;1274;22108;-61
2024/03/15 00:31:27;;;;;;;23.00;13.10;;;;;;;-3.66;73.10;141387.02;110589;1273;22102;-63
2024/03/15 00:34:14;;;;;;;27.80;15.50;;;;;;;-3.71;73.36;141375.86;110622;1273;23049;-64
2024/03/15 00:37:02;;;;;;;26.80;14.60;;;;;;;-3.75;73.31;141367.47;110603;1273;22082;-63
2024/03/15 00:39:48;;;;;;;26.30;13.90;;;;;;;-3.79;73.55;141356.30;110618;1273;22906;-62
2024/03/15 00:42:34;;;;;;;22.60;13.30;;;;;;;-3.84;73.69;141345.41;110587;1274;22130;-61
2024/03/15 00:45:21;;;;;;;23.60;14.30;;;;;;;-3.88;74.07;141335.50;110600;1273;22931;-61
2024/03/15 00:48:09;;;;;;;29.50;15.80;;;;;;;-3.92;74.61;141324.09;110622;1274;22203;-63
2024/03/15 00:50:55;;;;;;;30.00;14.70;;;;;;;-3.96;74.97;141313.94;110612;1274;22128;-65
2024/03/15 00:53:41;;;;;;;27.80;14.40;;;;;;;-3.99;75.31;141307.75;110593;1274;22120;-66
2024/03/15 00:56:28;;;;;;;28.50;14.70;;;;;;;-4.02;75.60;141301.31;110607;1274;22366;-65
2024/03/15 00:59:14;;;;;;;27.80;14.70;;;;;;;-4.04;75.86;141296.11;110634;1273;22105;-66
2024/03/15 01:02:00;;;;;;;24.80;14.70;;;;;;;-4.06;76.22;141291.41;110606;1273;22102;-60
2024/03/15 01:04:46;;;;;;;26.00;14.80;;;;;;;-4.09;76.45;141283.73;110620;1273;22089;-60
2024/03/15 01:07:32;;;;;;;25.20;14.50;;;;;;;-4.10;76.61;141281.50;110612;1274;23128;-62
2024/03/15 01:10:20;;;;;;;26.30;14.90;;;;;;;-4.10;76.85;141281.25;110631;1273;22878;-64
2024/03/15 01:13:06;;;;;;;24.00;14.20;;;;;;;-4.08;77.08;141284.00;110617;1273;22108;-63
2024/03/15 01:15:51;;;;;;;27.00;14.80;;;;;;;-4.08;77.16;141284.47;110589;1274;22115;-63
2024/03/15 01:18:38;;;;;;;27.10;15.00;;;;;;;-4.07;77.26;141286.44;110601;1273;22124;-62
2024/03/15 01:21:27;;;;;;;27.60;15.90;;;;;;;-4.08;77.53;141285.95;110601;1274;22174;-64
2024/03/15 01:24:13;;;;;;;29.00;15.00;;;;;;;-4.07;77.44;141287.92;110610;1273;22853;-66
2024/03/15 01:26:59;;;;;;;26.40;14.50;;;;;;;-4.04;77.84;141294.13;110609;1273;22821;-63
2024/03/15 01:29:46;;;;;;;26.90;16.20;;;;;;;-4.03;77.77;141296.84;110630;1274;22094;-64
2024/03/15 01:32:33;;;;;;;27.50;15.50;;;;;;;-4.01;77.85;141302.81;110640;1273;22154;-62
2024/03/15 01:35:19;;;;;;;25.10;15.80;;;;;;;-4.02;77.94;141301.58;110606;1273;22134;-65
2024/03/15 01:38:05;;;;;;;27.90;15.30;;;;;;;-3.99;78.11;141308.25;110588;1274;22161;-61
2024/03/15 01:40:51;;;;;;;32.70;17.00;;;;;;;-3.96;78.22;141316.16;110585;1274;22210;-62
2024/03/15 01:43:48;;;;;;;30.50;16.80;;;;;;;-3.93;78.31;141321.63;110576;1274;22106;-67
2024/03/15 01:46:35;;;;;;;25.10;15.20;;;;;;;-3.93;78.42;141322.86;110614;1273;22121;-61
2024/03/15 01:49:22;;;;;;;30.70;16.20;;;;;;;-3.94;78.72;141320.16;110605;1273;22794;-63
2024/03/15 01:52:08;;;;;;;33.20;16.80;;;;;;;-3.95;78.90;141316.66;110626;1273;22086;-65
2024/03/15 01:54:57;;;;;;;30.10;18.40;;;;;;;-3.99;79.35;141307.02;110629;1274;22151;-67
2024/03/15 01:57:43;;;;;;;29.60;16.50;;;;;;;-4.05;79.71;141293.13;110612;1274;22124;-62
2024/03/15 02:00:30;;;;;;;33.70;18.00;;;;;;;-4.13;80.37;141273.59;110594;1274;22195;-64
2024/03/15 02:03:17;;;;;;;29.00;16.60;;;;;;;-4.18;80.79;141262.17;110590;1274;22142;-64
2024/03/15 02:06:05;;;;;;;31.60;17.40;;;;;;;-4.20;81.25;141258.47;110628;1273;22116;-64
2024/03/15 02:08:55;;;;;;;32.20;18.20;;;;;;;-4.19;81.57;141259.95;110607;1274;22843;-64
2024/03/15 02:11:41;;;;;;;28.00;16.40;;;;;;;-4.17;82.04;141264.91;110586;1274;22225;-62
2024/03/15 02:14:27;;;;;;;30.90;17.30;;;;;;;-4.16;82.26;141267.63;110586;1274;22121;-63
2024/03/15 02:17:14;;;;;;;28.60;16.50;;;;;;;-4.15;82.55;141270.38;110607;1274;22123;-61
2024/03/15 02:20:00;;;;;;;33.50;18.10;;;;;;;-4.15;82.87;141268.88;110608;1274;22128;-65
2024/03/15 02:22:47;;;;;;;34.20;18.50;;;;;;;-4.17;83.35;141263.91;110618;1274;22117;-64
2024/03/15 02:25:34;;;;;;;35.70;18.60;;;;;;;-4.21;83.74;141255.02;110603;1274;22777;-66
2024/03/15 02:28:22;;;;;;;34.80;20.40;;;;;;;-4.28;84.30;141238.42;110606;1274;22131;-65
2024/03/15 02:31:10;;;;;;;33.60;18.60;;;;;;;-4.31;84.97;141230.97;110540;1274;22104;-65
2024/03/15 02:33:57;;;;;;;41.00;19.20;;;;;;;-4.29;85.39;141235.44;110557;1274;22134;-61
2024/03/15 02:36:43;;;;;;;33.30;18.90;;;;;;;-4.28;85.53;141236.92;110551;1273;22131;-59
2024/03/15 02:39:30;;;;;;;35.80;20.40;;;;;;;-4.25;85.79;141244.11;110606;1273;22075;-60
2024/03/15 02:42:16;;;;;;;31.60;19.80;;;;;;;-4.18;85.85;141261.47;110618;1274;22848;-66
2024/03/15 02:45:02;;;;;;;41.70;20.90;;;;;;;-4.14;85.86;141271.59;110608;1274;22121;-60
2024/03/15 02:47:48;;;;;;;35.10;19.90;;;;;;;-4.20;85.95;141257.72;110608;1273;22126;-62
2024/03/15 02:50:37;;;;;;;39.70;21.60;;;;;;;-4.23;86.57;141250.78;110620;1274;22205;-63
2024/03/15 02:53:24;;;;;;;33.80;21.20;;;;;;;-4.18;86.91;141261.92;110584;1273;22130;-65
2024/03/15 02:56:11;;;;;;;37.00;22.00;;;;;;;-4.15;86.85;141268.63;110599;1273;22109;-64
2024/03/15 02:58:58;;;;;;;37.30;22.00;;;;;;;-4.17;87.12;141264.42;110257;1274;22111;-65
2024/03/15 03:01:46;;;;;;;45.10;23.30;;;;;;;-4.21;87.63;141255.25;110611;1273;22118;-67
2024/03/15 03:04:32;;;;;;;41.60;23.50;;;;;;;-4.37;88.74;141216.88;110593;1273;22219;-66
2024/03/15 03:07:18;;;;;;;48.80;23.60;;;;;;;-4.49;89.88;141186.91;110604;1273;22411;-60
2024/03/15 03:10:05;;;;;;;41.70;22.40;;;;;;;-4.59;91.02;141162.67;110606;1273;22098;-63
2024/03/15 03:12:51;;;;;;;42.20;24.40;;;;;;;-4.64;91.64;141152.00;110557;1274;22203;-63
2024/03/15 03:15:40;;;;;;;42.00;24.30;;;;;;;-4.60;92.47;141160.17;110544;1274;22211;-61
2024/03/15 03:18:27;;;;;;;40.50;23.80;;;;;;;-4.58;92.96;141164.38;110503;1274;22137;-62
2024/03/15 03:21:13;;;;;;;45.00;24.40;;;;;;;-4.53;93.03;141176.77;110614;1273;22782;-66
2024/03/15 03:24:00;;;;;;;43.80;24.80;;;;;;;-4.41;92.83;141206.72;110596;1273;22107;-67
2024/03/15 03:26:47;;;;;;;45.00;25.00;;;;;;;-4.29;92.43;141233.70;110600;1274;22125;-66
2024/03/15 03:29:33;;;;;;;44.20;25.90;;;;;;;-4.22;92.03;141251.80;110629;1274;22139;-62
2024/03/15 03:32:19;;;;;;;46.50;24.20;;;;;;;-4.17;91.89;141265.41;110614;1273;22107;-62
2024/03/15 03:35:05;;;;;;;45.80;25.80;;;;;;;-4.14;91.57;141271.84;110598;1273;22860;-65
2024/03/15 03:37:52;;;;;;;47.40;26.70;;;;;;;-4.10;91.32;141280.28;110608;1274;22096;-64
2024/03/15 03:40:38;;;;;;;41.50;26.80;;;;;;;-4.06;91.41;141289.42;110639;1274;22171;-63
2024/03/15 03:43:23;;;;;;;45.10;27.00;;;;;;;-4.06;91.20;141290.41;110626;1274;22974;-64
2024/03/15 03:46:12;;;;;;;50.00;26.80;;;;;;;-4.01;91.19;141303.05;110589;1273;22198;-62
2024/03/15 03:48:58;;;;;;;53.10;27.20;;;;;;;-3.98;91.23;141310.22;110605;1273;22119;-67
2024/03/15 03:51:44;;;;;;;48.00;28.80;;;;;;;-3.96;91.20;141313.69;110597;1274;22202;-63
2024/03/15 03:54:31;;;;;;;48.60;27.60;;;;;;;-3.96;91.25;141316.42;110620;1273;22096;-65
2024/03/15 03:57:21;;;;;;;50.50;27.90;;;;;;;-3.95;91.63;141318.41;111103;1256;22328;-65
2024/03/15 04:00:27;;;;;;;47.60;27.10;;;;;;;-3.90;91.67;141328.05;110575;1273;22184;-66
2024/03/15 04:03:13;;;;;;;45.80;28.10;;;;;;;-3.83;91.75;141345.91;110593;1273;22895;-65
2024/03/15 04:05:59;;;;;;;49.40;27.40;;;;;;;-3.75;91.58;141366.45;110612;1273;22193;-61
2024/03/15 04:08:45;;;;;;;49.60;28.00;;;;;;;-3.70;91.33;141378.09;110620;1273;22118;-66
2024/03/15 04:11:31;;;;;;;49.10;28.10;;;;;;;-3.67;91.48;141385.53;110597;1274;22109;-63
2024/03/15 04:14:20;;;;;;;47.20;28.50;;;;;;;-3.62;91.26;141395.67;110575;1273;22171;-62
2024/03/15 04:17:07;;;;;;;45.10;26.30;;;;;;;-3.66;91.36;141387.50;110609;1274;22838;-64
2024/03/15 04:19:53;;;;;;;44.90;27.70;;;;;;;-3.81;91.58;141351.34;110604;1274;22202;-66
2024/03/15 04:22:42;;;;;;;48.00;26.90;;;;;;;-3.95;92.36;141318.16;110621;1274;22714;-68
2024/03/15 04:25:28;;;;;;;46.80;27.60;;;;;;;-3.99;92.89;141308.97;110633;1274;22180;-67
2024/03/15 04:28:18;;;;;;;45.90;27.20;;;;;;;-4.01;93.62;141301.56;110618;1274;22099;-64
2024/03/15 04:31:05;;;;;;;50.30;27.50;;;;;;;-4.04;94.43;141295.38;110593;1274;22108;-64
2024/03/15 04:33:51;;;;;;;54.00;29.10;;;;;;;-4.02;94.52;141299.09;110587;1274;22100;-64
2024/03/15 04:36:37;;;;;;;56.20;29.20;;;;;;;-3.97;94.45;141313.22;110626;1274;22205;-65
2024/03/15 04:39:23;;;;;;;54.30;30.10;;;;;;;-3.99;94.63;141308.25;110597;1274;22762;-62
2024/03/15 04:42:12;;;;;;;52.50;30.00;;;;;;;-3.96;94.86;141314.70;110537;1274;22140;-61
2024/03/15 04:45:08;;;;;;;53.60;30.00;;;;;;;-3.85;94.86;141341.20;110588;1273;22114;-62
2024/03/15 04:47:54;;;;;;;50.90;29.70;;;;;;;-3.68;94.65;141382.31;110613;1273;22181;-65
2024/03/15 04:50:41;;;;;;;51.50;30.40;;;;;;;-3.51;94.15;141422.95;110606;1274;22879;-64
2024/03/15 04:53:28;;;;;;;49.50;30.70;;;;;;;-3.37;93.43;141458.89;110627;1273;22184;-62
2024/03/15 04:56:14;;;;;;;54.00;32.70;;;;;;;-3.30;92.57;141475.75;110629;1274;22132;-63
2024/03/15 04:59:00;;;;;;;52.90;31.60;;;;;;;-3.29;92.29;141477.72;111272;1254;23035;-63
2024/03/15 05:01:46;;;;;;;51.10;30.50;;;;;;;-3.29;92.36;141478.44;110605;1274;22084;-67
2024/03/15 05:04:32;;;;;;;54.90;32.00;;;;;;;-3.29;92.28;141479.19;110613;1274;22101;-67
2024/03/15 05:07:18;;;;;;;54.50;32.50;;;;;;;-3.28;92.22;141479.45;110567;1274;22109;-61
2024/03/15 05:10:06;;;;;;;54.20;30.40;;;;;;;-3.26;92.35;141484.16;110604;1274;22097;-66
2024/03/15 05:12:53;;;;;;;58.10;31.50;;;;;;;-3.19;92.14;141501.28;110587;1274;22115;-64
2024/03/15 05:15:39;;;;;;;48.10;29.10;;;;;;;-3.12;91.43;141517.11;110463;1274;22808;-66
2024/03/15 05:18:29;;;;;;;55.80;30.40;;;;;;;-3.13;91.19;141514.91;110584;1274;22882;-66
2024/03/15 05:21:15;;;;;;;57.50;30.80;;;;;;;-3.18;90.94;141503.23;110621;1274;22912;-63
2024/03/15 05:24:02;;;;;;;52.50;29.80;;;;;;;-3.23;90.95;141491.36;110574;1274;22803;-63
2024/03/15 05:26:48;;;;;;;58.50;32.70;;;;;;;-3.32;91.49;141471.52;110581;1274;22129;-64
2024/03/15 05:29:35;;;;;;;58.80;32.10;;;;;;;-3.34;92.28;141464.31;110578;1274;22096;-62
2024/03/15 05:32:21;;;;;;;60.70;31.70;;;;;;;-3.33;93.11;141467.31;110557;1274;22789;-62
2024/03/15 05:35:07;;;;;;;58.00;31.30;;;;;;;-3.29;93.48;141477.97;110569;1274;22172;-64
2024/03/15 05:37:53;;;;;;;57.70;31.40;;;;;;;-3.22;93.43;141494.31;110601;1274;22276;-62
2024/03/15 05:40:39;;;;;;;57.30;34.20;;;;;;;-3.17;93.05;141506.22;110584;1274;22886;-65
2024/03/15 05:43:25;;;;;;;65.10;33.50;;;;;;;-3.15;92.75;141511.16;110579;1274;22100;-63
2024/03/15 05:46:11;;;;;;;67.90;36.60;;;;;;;-3.17;92.61;141506.72;110598;1274;22788;-60
2024/03/15 05:48:58;;;;;;;66.60;38.00;;;;;;;-3.19;92.98;141501.28;110617;1274;22117;-69
2024/03/15 05:51:44;;;;;;;64.50;36.80;;;;;;;-3.22;93.19;141492.34;110578;1274;22184;-61
2024/03/15 05:54:31;;;;;;;71.60;38.50;;;;;;;-3.25;93.43;141486.41;110598;1274;22111;-66
2024/03/15 05:57:16;;;;;;;65.90;40.10;;;;;;;-3.28;93.80;141480.20;110621;1274;22952;-64
2024/03/15 06:00:10;;;;;;;70.00;39.70;;;;;;;-3.29;94.30;141478.70;110585;1274;22186;-66
2024/03/15 06:03:05;;;;;;;80.10;41.80;;;;;;;-3.26;94.56;141484.19;110612;1273;22124;-63
2024/03/15 06:05:51;;;;;;;69.30;35.90;;;;;;;-3.24;94.96;141488.13;111083;1256;22138;-63
2024/03/15 06:08:37;;;;;;;55.50;33.30;;;;;;;-3.26;95.52;141483.91;110578;1274;22127;-67
2024/03/15 06:11:24;;;;;;;62.90;33.00;;;;;;;-3.29;95.94;141476.72;110545;1274;22858;-66
2024/03/15 06:14:11;;;;;;;61.70;33.60;;;;;;;-3.31;96.58;141473.53;110579;1274;22599;-64
2024/03/15 06:16:58;;;;;;;62.80;34.40;;;;;;;-3.30;96.89;141474.73;110600;1274;22848;-66
2024/03/15 06:19:44;;;;;;;56.60;31.60;;;;;;;-3.30;97.45;141475.25;110599;1274;22239;-65
2024/03/15 06:22:30;;;;;;;57.10;33.20;;;;;;;-3.30;97.69;141475.50;110584;1274;22186;-61
2024/03/15 06:25:16;;;;;;;59.90;33.60;;;;;;;-3.26;98.18;141483.19;110592;1274;22072;-65
2024/03/15 06:28:11;;;;;;;58.50;34.60;;;;;;;-3.24;98.62;141489.88;110597;1274;22186;-64
2024/03/15 06:30:57;;;;;;;60.30;33.20;;;;;;;-3.24;98.63;141489.59;110618;1274;22786;-65
2024/03/15 06:33:44;;;;;;;56.30;32.40;;;;;;;-3.24;98.86;141487.41;110589;1274;22134;-66
2024/03/15 06:36:41;;;;;;;66.70;34.00;;;;;;;-3.21;99.14;141497.30;110608;1274;22927;-67
2024/03/15 06:42:24;;;;;;;57.90;30.80;;;;;;;-2.99;99.25;141549.09;110581;1274;22735;-66
2024/03/15 06:45:23;;;;;;;57.40;31.80;;;;;;;-2.89;99.22;141575.63;111255;1252;22488;-64
2024/03/15 06:48:17;;;;;;;57.40;32.60;;;;;;;-2.80;98.90;141594.72;110562;1274;22326;-66
2024/03/15 06:54:08;;;;;;;53.40;31.30;;;;;;;-2.80;98.54;141594.22;110604;1274;22727;-63
2024/03/15 06:56:55;;;;;;;49.80;31.00;;;;;;;-2.79;98.80;141598.67;110586;1274;22952;-66
2024/03/15 06:59:42;;;;;;;55.40;32.90;;;;;;;-2.74;98.85;141610.09;111237;1255;22180;-70
2024/03/15 07:02:29;;;;;;;50.10;30.80;;;;;;;-2.67;98.93;141627.45;110616;1274;22106;-67
2024/03/15 07:05:16;;;;;;;52.70;29.70;;;;;;;-2.65;98.28;141632.91;110576;1273;22124;-65
2024/03/15 07:08:06;;;;;;;47.60;28.30;;;;;;;-2.69;98.09;141621.73;110896;1256;22175;-65
2024/03/15 07:10:52;;;;;;;51.90;31.40;;;;;;;-2.76;98.66;141605.88;111159;1256;22140;-64
2024/03/15 07:13:38;;;;;;;52.10;31.20;;;;;;;-2.74;99.42;141611.08;111302;1252;22324;-65
2024/03/15 07:16:26;;;;;;;46.90;28.80;;;;;;;-2.72;99.35;141615.53;110579;1274;22845;-66
2024/03/15 07:19:13;;;;;;;49.60;30.10;;;;;;;-2.74;99.76;141609.59;110560;1274;23078;-65
2024/03/15 07:21:59;;;;;;;45.50;29.50;;;;;;;-2.71;100.00;141616.53;110593;1274;22735;-68
2024/03/15 07:24:50;;;;;;;47.10;29.70;;;;;;;-2.64;99.98;141634.66;110604;1274;22317;-66
2024/03/15 07:27:38;;;;;;;50.30;29.80;;;;;;;-2.52;99.73;141663.42;111174;1255;22242;-69
2024/03/15 07:30:24;;;;;;;54.50;30.80;;;;;;;-2.46;98.82;141678.28;110601;1274;22330;-68
2024/03/15 07:33:11;;;;;;;50.70;29.10;;;;;;;-2.39;98.40;141694.92;111247;1254;22118;-63
2024/03/15 07:36:01;;;;;;;48.10;29.20;;;;;;;-2.31;97.81;141713.02;110593;1274;22989;-64
2024/03/15 07:38:47;;;;;;;50.90;30.20;;;;;;;-2.19;97.53;141743.53;111176;1256;22326;-64
2024/03/15 07:41:34;;;;;;;47.80;29.70;;;;;;;-1.99;96.73;141792.16;110598;1274;22335;-67
2024/03/15 07:44:23;;;;;;;48.70;30.20;;;;;;;-1.79;95.99;141841.05;110600;1274;22042;-64
2024/03/15 07:47:09;;;;;;;44.50;28.90;;;;;;;-1.41;94.23;141931.41;110606;1274;22184;-70
2024/03/15 07:49:56;;;;;;;45.00;26.40;;;;;;;-1.19;91.22;141986.28;111147;1256;22162;-66
2024/03/15 07:52:42;;;;;;;49.90;29.90;;;;;;;-0.91;90.13;142054.08;110607;1274;22109;-66
2024/03/15 07:55:30;;;;;;;42.00;27.70;;;;;;;-0.48;87.75;142158.17;111270;1256;22307;-64
2024/03/15 07:58:16;;;;;;;42.30;26.90;;;;;;;-0.20;84.49;142226.52;110593;1273;22099;-66
2024/03/15 08:01:07;;;;;;;40.90;24.10;;;;;;;-0.17;83.01;142232.23;110603;1274;22134;-65
2024/03/15 08:03:54;;;;;;;36.80;24.80;;;;;;;0.00;82.23;142276.22;110619;1274;22029;-69
2024/03/15 08:06:40;;;;;;;37.50;24.50;;;;;;;0.52;80.53;142401.55;110619;1274;22317;-66
2024/03/15 08:09:27;;;;;;;34.60;23.50;;;;;;;1.17;78.61;142559.28;110579;1274;22160;-66
2024/03/15 08:12:14;;;;;;;33.70;24.20;;;;;;;1.81;74.91;142714.38;111282;1254;22428;-66
2024/03/15 08:15:02;;;;;;;41.80;25.60;;;;;;;1.94;72.32;142747.47;110616;1274;22106;-64
2024/03/15 08:17:50;;;;;;;35.80;25.70;;;;;;;1.99;71.34;142756.94;111234;1253;22799;-64
2024/03/15 08:20:37;;;;;;;33.50;24.50;;;;;;;2.20;69.66;142809.98;111256;1255;22333;-64
2024/03/15 08:23:23;;;;;;;39.70;24.80;;;;;;;2.45;69.08;142871.75;110610;1274;23140;-68
2024/03/15 08:26:12;;;;;;;38.80;25.30;;;;;;;2.69;67.65;142930.33;110614;1274;22109;-64
2024/03/15 08:29:03;;;;;;;35.50;25.40;;;;;;;2.53;66.74;142890.95;110606;1274;22112;-64
2024/03/15 08:31:49;;;;;;;40.40;26.00;;;;;;;2.35;67.24;142845.61;110577;1274;22122;-62
2024/03/15 08:34:36;;;;;;;41.20;26.90;;;;;;;1.87;68.27;142730.03;111175;1256;22272;-66
2024/03/15 08:37:24;;;;;;;46.00;28.10;;;;;;;1.63;69.25;142670.80;110610;1274;22120;-66
2024/03/15 08:40:13;;;;;;;38.10;26.40;;;;;;;1.13;70.93;142549.34;110604;1274;22108;-66
2024/03/15 08:43:00;;;;;;;41.20;27.40;;;;;;;0.58;73.18;142417.22;110583;1274;22146;-66
2024/03/15 08:45:49;;;;;;;43.00;29.00;;;;;;;-0.10;76.63;142250.38;111179;1253;22126;-64
2024/03/15 08:48:36;;;;;;;45.00;30.50;;;;;;;-0.55;79.95;142141.53;111220;1257;22438;-66
2024/03/15 08:51:23;;;;;;;45.20;30.30;;;;;;;-0.74;81.87;142095.33;110618;1274;22330;-66
2024/03/15 08:54:10;;;;;;;41.60;27.80;;;;;;;-1.09;84.68;142009.63;111270;1256;23112;-68
2024/03/15 08:56:56;;;;;;;45.30;30.20;;;;;;;-1.43;87.28;141926.69;110593;1274;22774;-67
2024/03/15 08:59:43;;;;;;;40.60;28.10;;;;;;;-1.60;88.91;141886.22;111252;1254;23151;-65
2024/03/15 09:02:29;;;;;;;41.20;29.20;;;;;;;-1.53;89.26;141902.59;111259;1256;22148;-66
2024/03/15 09:05:15;;;;;;;48.90;29.70;;;;;;;-1.48;89.43;141914.55;110611;1274;23116;-68
2024/03/15 09:08:04;;;;;;;43.70;31.40;;;;;;;-1.47;89.91;141918.50;110638;1274;22119;-68
2024/03/15 09:10:51;;;;;;;48.20;32.00;;;;;;;-1.50;90.57;141911.31;110585;1274;22145;-66
2024/03/15 09:13:37;;;;;;;50.60;33.50;;;;;;;-1.55;91.45;141898.63;110573;1274;22112;-68
2024/03/15 09:16:35;;;;;;;55.30;35.10;;;;;;;-1.69;92.13;141863.91;111175;1259;22114;-67
2024/03/15 09:19:21;;;;;;;56.50;35.10;;;;;;;-1.83;93.62;141829.64;110596;1274;22082;-67
2024/03/15 09:22:07;;;;;;;51.80;35.10;;;;;;;-1.90;94.53;141813.25;110588;1274;22317;-65
2024/03/15 09:24:55;;;;;;;50.10;32.70;;;;;;;-1.81;94.65;141834.59;110603;1274;22124;-68
2024/03/15 09:27:42;;;;;;;49.80;33.50;;;;;;;-1.68;94.44;141867.84;111132;1254;22335;-65
2024/03/15 09:30:47;;;;;;;53.60;33.20;;;;;;;-1.66;94.19;141872.33;110596;1274;22162;-67
2024/03/15 09:33:54;;;;;;;53.60;35.10;;;;;;;-1.82;94.93;141833.34;110588;1274;22100;-64
2024/03/15 09:36:41;;;;;;;54.10;35.20;;;;;;;-1.79;95.60;141840.06;110568;1274;22404;-68
2024/03/15 09:39:29;;;;;;;58.40;34.80;;;;;;;-1.55;95.15;141899.88;111181;1257;22147;-66
2024/03/15 09:42:17;;;;;;;56.40;35.30;;;;;;;-1.51;94.15;141908.83;110603;1274;22907;-65
2024/03/15 09:45:06;;;;;;;52.60;33.00;;;;;;;-1.31;94.03;141956.47;110572;1274;22108;-64
2024/03/15 09:47:53;;;;;;;51.60;32.50;;;;;;;-1.07;92.61;142016.08;110579;1274;22112;-67
2024/03/15 09:50:40;;;;;;;52.90;33.20;;;;;;;-0.93;91.25;142048.13;110560;1274;22102;-63
2024/03/15 09:53:27;;;;;;;50.00;32.00;;;;;;;-0.91;90.69;142055.08;110599;1274;22783;-68
2024/03/15 09:56:18;;;;;;;51.50;35.50;;;;;;;-0.90;90.30;142058.05;111162;1259;22915;-63
2024/03/15 09:59:17;;;;;;;53.00;34.80;;;;;;;-0.79;90.24;142083.39;110590;1274;22136;-65
2024/03/15 10:02:14;;;;;;;59.20;32.80;;;;;;;-0.67;89.53;142111.72;110582;1274;22123;-63
2024/03/15 10:05:01;;;;;;;54.20;31.20;;;;;;;-0.71;88.79;142103.28;110480;1262;22140;-64
2024/03/15 10:07:48;;;;;;;52.70;34.30;;;;;;;-0.90;88.84;142057.33;110397;1262;22807;-67
2024/03/15 10:10:34;;;;;;;51.10;32.70;;;;;;;-0.97;89.81;142038.17;110191;1262;22140;-65
2024/03/15 10:13:21;;;;;;;53.60;33.50;;;;;;;-0.89;89.88;142057.81;110183;1279;22119;-69
2024/03/15 10:16:08;;;;;;;48.30;31.80;;;;;;;-0.72;89.63;142099.80;110496;1264;22150;-68
2024/03/15 10:18:55;;;;;;;51.50;34.90;;;;;;;-0.64;88.39;142119.16;110499;1262;22125;-64
2024/03/15 10:21:42;;;;;;;51.40;34.00;;;;;;;-0.74;88.72;142096.80;110196;1262;22142;-66
2024/03/15 10:24:29;;;;;;;54.20;32.30;;;;;;;-0.58;88.11;142133.84;110034;1279;22796;-65
2024/03/15 10:27:16;;;;;;;55.90;34.00;;;;;;;-0.78;87.94;142084.66;110173;1278;22127;-65
2024/03/15 10:30:13;;;;;;;48.70;32.50;;;;;;;-1.15;90.40;141995.23;110199;1278;22929;-64
2024/03/15 10:32:59;;;;;;;49.80;33.10;;;;;;;-1.26;91.64;141969.16;110182;1279;22928;-64
2024/03/15 10:35:46;;;;;;;55.90;33.50;;;;;;;-1.04;91.86;142022.78;110161;1279;22127;-68
2024/03/15 10:38:33;;;;;;;63.40;32.90;;;;;;;-0.80;90.71;142080.66;110098;1269;22345;-69
2024/03/15 10:41:20;;;;;;;54.00;33.30;;;;;;;-0.60;89.77;142128.61;110583;1261;22306;-64
2024/03/15 10:44:14;;;;;;;51.20;33.30;;;;;;;-0.56;88.61;142138.30;110473;1262;22142;-65
2024/03/15 10:47:02;;;;;;;51.00;33.70;;;;;;;-0.56;88.56;142137.80;110481;1262;22099;-61
2024/03/15 10:49:52;;;;;;;50.10;32.70;;;;;;;-0.45;87.68;142165.13;110195;1278;22165;-69
2024/03/15 10:52:42;;;;;;;49.10;32.20;;;;;;;-0.41;87.06;142174.81;110182;1279;22121;-65
2024/03/15 10:55:29;;;;;;;52.20;32.60;;;;;;;-0.39;86.98;142181.30;110492;1262;22139;-66
2024/03/15 10:58:17;;;;;;;56.30;32.30;;;;;;;-0.37;86.68;142185.75;110192;1279;22152;-62
2024/03/15 11:01:04;;;;;;;50.80;30.80;;;;;;;-0.36;86.65;142188.25;110172;1278;22267;-63
2024/03/15 11:03:51;;;;;;;51.80;31.80;;;;;;;-0.41;86.33;142174.56;110489;1261;22086;-65
2024/03/15 11:06:44;;;;;;;53.00;32.10;;;;;;;-0.42;86.83;142173.34;110142;1279;22604;-64
2024/03/15 11:09:35;;;;;;;47.90;31.00;;;;;;;-0.27;86.41;142209.88;110190;1258;22128;-64
2024/03/15 11:12:22;;;;;;;48.80;31.70;;;;;;;-0.22;85.91;142223.03;110476;1264;22122;-68
2024/03/15 11:15:24;;;;;;;54.50;32.50;;;;;;;-0.20;85.92;142226.02;110170;1279;22123;-67
2024/03/15 11:18:13;;;;;;;45.50;30.80;;;;;;;-0.13;85.69;142243.91;110495;1272;22143;-65
2024/03/15 11:21:00;;;;;;;45.40;31.60;;;;;;;-0.08;85.24;142256.58;110162;1279;22905;-69
2024/03/15 11:23:47;;;;;;;52.70;32.00;;;;;;;0.05;84.83;142286.42;110515;1262;22123;-64
2024/03/15 11:26:33;;;;;;;51.50;32.60;;;;;;;0.21;84.11;142325.97;110179;1278;22102;-64
2024/03/15 11:29:20;;;;;;;52.50;32.50;;;;;;;0.42;83.13;142376.95;110509;1265;22426;-62
2024/03/15 11:32:10;;;;;;;49.40;29.90;;;;;;;0.70;81.99;142444.83;110473;1265;22137;-63
2024/03/15 11:34:57;;;;;;;51.60;32.30;;;;;;;0.82;80.60;142473.44;110157;1279;22117;-67
2024/03/15 11:37:43;;;;;;;52.20;32.90;;;;;;;0.99;80.93;142515.48;110543;1272;22339;-64
2024/03/15 11:40:30;;;;;;;53.10;34.00;;;;;;;1.09;78.14;142538.88;110183;1278;22141;-64
2024/03/15 11:43:16;;;;;;;53.40;32.90;;;;;;;0.94;78.65;142504.30;110177;1279;22151;-66
2024/03/15 11:46:03;;;;;;;54.20;34.90;;;;;;;0.88;77.82;142489.59;110196;1278;22139;-65
2024/03/15 11:48:50;;;;;;;49.30;33.30;;;;;;;0.76;78.31;142460.50;110173;1278;22144;-68
2024/03/15 11:51:39;;;;;;;51.40;32.30;;;;;;;0.80;78.22;142469.20;110497;1268;22139;-67
2024/03/15 11:54:26;;;;;;;52.40;33.70;;;;;;;0.75;78.10;142457.75;110511;1263;22909;-66
2024/03/15 11:57:12;;;;;;;52.00;32.90;;;;;;;0.65;78.96;142432.64;110485;1263;22114;-66
2024/03/15 12:00:06;;;;;;;48.00;31.60;;;;;;;0.80;78.92;142468.22;110544;1263;22133;-65
2024/03/15 12:02:54;;;;;;;51.20;31.20;;;;;;;0.96;78.25;142507.78;110175;1279;23017;-68
2024/03/15 12:05:42;;;;;;;51.30;33.50;;;;;;;0.97;77.46;142511.52;110163;1279;22068;-67
2024/03/15 12:08:28;;;;;;;51.40;33.10;;;;;;;0.76;78.13;142459.00;110185;1279;22151;-68
2024/03/15 12:11:15;;;;;;;48.60;31.00;;;;;;;0.80;78.82;142469.44;110475;1261;22142;-61
2024/03/15 12:14:03;;;;;;;53.20;33.70;;;;;;;0.92;78.03;142499.33;110491;1261;22879;-65
2024/03/15 12:16:51;;;;;;;51.50;34.30;;;;;;;0.69;78.26;142441.59;110173;1278;22114;-67
2024/03/15 12:19:37;;;;;;;49.80;33.00;;;;;;;0.56;79.01;142412.48;110173;1279;22109;-67
2024/03/15 12:22:24;;;;;;;48.90;32.60;;;;;;;0.71;78.76;142448.05;110191;1279;22333;-63
2024/03/15 12:25:10;;;;;;;50.70;32.70;;;;;;;0.88;78.36;142488.36;110162;1279;22855;-66
2024/03/15 12:27:58;;;;;;;47.50;31.30;;;;;;;1.04;77.74;142529.42;110477;1263;22088;-65
2024/03/15 12:30:47;;;;;;;48.90;32.20;;;;;;;1.14;76.89;142551.58;110180;1278;22095;-69
2024/03/15 12:33:33;;;;;;;50.10;32.30;;;;;;;1.15;76.70;142552.56;110551;1263;22109;-63
2024/03/15 12:36:20;;;;;;;54.20;33.10;;;;;;;1.22;76.43;142570.22;110527;1263;22890;-67
2024/03/15 12:39:09;;;;;;;55.30;32.90;;;;;;;1.27;76.27;142585.17;110505;1260;22157;-64